KFKL/FKL METAR and TAF weather

Enter ICAO airport designator
Station Type Date Time Source
KFKL METAR 2019/10/21 05:56 UTC NOAA

KFKL 210556Z AUTO 00000KT 10SM CLR 07/07 A3003 RMK AO2 SLP170 T00720067 10144 20067 51007


Station Type Date Time Source
KFKL Decoded METAR 2019/10/21 05:56 UTC NOAA

Franklin, Venango Regional Airport, PA, United States (KFKL) 41-23N 079-52W
Oct 21, 2019 - 01:56 AM EDT / 2019.10.21 0556 UTC
Wind: Calm:0
Visibility: 10 mile(s):0
Sky conditions: clear
Temperature: 45.0 F (7.2 C)
Dew Point: 44.1 F (6.7 C)
Relative Humidity: 96%
Pressure (altimeter): 30.03 in. Hg (1016 hPa)
Pressure tendency: 0.02 inches (0.7 hPa) higher than three hours ago
ob: KFKL 210556Z AUTO 00000KT 10SM CLR 07/07 A3003 RMK AO2 SLP170 T00720067 10144 20067 51007
cycle: 6

Station Type Date Time Source
KFKL TAF 2019/10/21 06:36 UTC NOAA

TAF KFKL 210533Z 2106/2206 00000KT P6SM SCT200
FM210800 00000KT 1SM BR OVC001
TEMPO 2108/2109 3SM BR SCT001
FM211200 13005KT P6SM SCT200
FM211700 13008G18KT P6SM SCT250

Example: see airport list